Time;durP1;ratioP1;P1;durP2;ratioP2;P2;SDS_P1;SDS_P2;PMS_P1;PMS_P2;Temp;Humidity;BMP_temperature;BMP_pressure;BME280_temperature;BME280_humidity;BME280_pressure;Samples;Min_cycle;Max_cycle;Signal;HPM_P1;HPM_P2
2023/08/30 00:02:01;0.00;0.00;0.62;0.00;0.00;0.62;;;;;18.20;6.10;;;;;;2268569;61;1408;-86
2023/08/30 00:04:28;107509.00;0.36;186.53;24283.00;0.08;42.69;;;;;18.10;6.80;;;;;;2268571;61;1016;-87
2023/08/30 00:06:55;0.00;0.00;0.62;0.00;0.00;0.62;;;;;18.40;6.40;;;;;;2268653;61;1932;-86
2023/08/30 00:09:22;26285.00;0.09;46.15;0.00;0.00;0.62;;;;;18.50;5.10;;;;;;2268635;61;1090;-89
2023/08/30 00:11:48;85212.00;0.28;148.04;0.00;0.00;0.62;;;;;18.50;5.50;;;;;;2268547;61;1418;-86
2023/08/30 00:14:15;0.00;0.00;0.62;0.00;0.00;0.62;;;;;18.50;5.10;;;;;;2268559;61;1075;-86
2023/08/30 00:16:43;52538.00;0.18;91.58;0.00;0.00;0.62;;;;;18.40;5.10;;;;;;2268596;61;1017;-86
2023/08/30 00:19:10;17251.00;0.06;30.51;0.00;0.00;0.62;;;;;18.40;6.00;;;;;;2268371;61;1121;-87
2023/08/30 00:21:37;0.00;0.00;0.62;0.00;0.00;0.62;;;;;18.30;4.90;;;;;;2268483;61;1380;-87
2023/08/30 00:24:04;6389.00;0.02;11.69;0.00;0.00;0.62;;;;;18.20;6.00;;;;;;2268391;61;1590;-87
2023/08/30 00:26:31;12066.00;0.04;21.53;0.00;0.00;0.62;;;;;18.10;6.50;;;;;;2268449;61;1998;-87
2023/08/30 00:28:58;86843.00;0.29;150.86;3996.00;0.01;7.55;;;;;18.10;6.60;;;;;;2268529;61;1080;-86
2023/08/30 00:31:24;10734.00;0.04;19.22;0.00;0.00;0.62;;;;;18.10;6.80;;;;;;2268389;61;1409;-89
2023/08/30 00:33:52;238.00;0.00;1.03;0.00;0.00;0.62;;;;;18.20;5.30;;;;;;2268535;61;960;-86
2023/08/30 00:36:19;0.00;0.00;0.62;0.00;0.00;0.62;;;;;18.20;6.00;;;;;;2268414;61;1066;-87
2023/08/30 00:38:47;0.00;0.00;0.62;0.00;0.00;0.62;;;;;18.10;5.70;;;;;;2268393;61;1193;-86
2023/08/30 00:41:14;79429.00;0.26;138.05;0.00;0.00;0.62;;;;;18.10;6.40;;;;;;2268483;61;1304;-86
2023/08/30 00:43:40;0.00;0.00;0.62;0.00;0.00;0.62;;;;;18.10;5.40;;;;;;2268454;61;1039;-86
2023/08/30 00:46:07;67288.00;0.22;117.07;0.00;0.00;0.62;;;;;18.20;6.10;;;;;;2268334;61;1916;-87
2023/08/30 00:48:34;103103.00;0.34;178.93;29975.00;0.10;52.54;;;;;18.20;4.90;;;;;;2268444;61;1116;-87
2023/08/30 00:51:02;0.00;0.00;0.62;0.00;0.00;0.62;;;;;18.00;6.40;;;;;;2268380;61;1710;-86
2023/08/30 00:53:29;153430.00;0.51;265.72;26806.00;0.09;47.05;;;;;18.00;5.80;;;;;;2268487;61;1082;-86
2023/08/30 00:55:56;340.00;0.00;1.21;0.00;0.00;0.62;;;;;18.10;6.10;;;;;;2268383;61;1157;-86
2023/08/30 00:58:26;156682.00;0.52;271.32;20199.00;0.07;35.61;;;;;18.20;5.80;;;;;;2268402;61;1077;-87
2023/08/30 01:00:54;112032.00;0.37;194.34;42563.00;0.14;74.32;;;;;18.10;5.50;;;;;;2268357;61;1439;-84
2023/08/30 01:03:23;55162.00;0.18;96.11;0.00;0.00;0.62;;;;;18.10;5.60;;;;;;2268404;61;1637;-86
2023/08/30 01:05:49;5947.00;0.02;10.93;0.00;0.00;0.62;;;;;18.00;5.90;;;;;;2268348;61;1914;-87
2023/08/30 01:08:18;95640.00;0.32;166.05;28996.00;0.10;50.85;;;;;18.20;5.30;;;;;;2268410;61;1204;-88
2023/08/30 01:10:53;0.00;0.00;0.62;0.00;0.00;0.62;;;;;18.10;5.30;;;;;;2268200;61;1297;-85
2023/08/30 01:13:22;0.00;0.00;0.62;0.00;0.00;0.62;;;;;17.90;6.20;;;;;;2268354;61;1024;-86
2023/08/30 01:15:49;52757.00;0.18;91.95;0.00;0.00;0.62;;;;;18.00;5.50;;;;;;2268386;61;996;-86
2023/08/30 01:18:20;579.00;0.00;1.62;0.00;0.00;0.62;;;;;17.90;6.10;;;;;;2268369;61;1063;-86
2023/08/30 01:20:48;4738.00;0.02;8.83;0.00;0.00;0.62;;;;;17.90;5.70;;;;;;2268405;61;1398;-86
2023/08/30 01:23:33;0.00;0.00;0.62;0.00;0.00;0.62;;;;;17.90;6.20;;;;;;2268314;61;1495;-87
2023/08/30 01:26:09;186711.00;0.62;323.05;39068.00;0.13;68.28;;;;;18.00;5.20;;;;;;2268348;61;1939;-86
2023/08/30 01:28:39;10288.00;0.03;18.45;0.00;0.00;0.62;;;;;17.80;6.20;;;;;;2268378;61;1053;-86
2023/08/30 01:31:09;104417.00;0.35;181.20;0.00;0.00;0.62;;;;;17.80;5.80;;;;;;2268399;61;1391;-86
2023/08/30 01:33:37;0.00;0.00;0.62;0.00;0.00;0.62;;;;;17.70;6.40;;;;;;2268413;61;1095;-85
2023/08/30 01:36:05;0.00;0.00;0.62;0.00;0.00;0.62;;;;;17.50;6.60;;;;;;2268392;61;1122;-86
2023/08/30 01:38:34;0.00;0.00;0.62;0.00;0.00;0.62;;;;;17.50;6.90;;;;;;2268323;61;969;-87
2023/08/30 01:41:02;0.00;0.00;0.62;0.00;0.00;0.62;;;;;17.70;6.60;;;;;;2268312;61;1312;-85
2023/08/30 01:43:31;0.00;0.00;0.62;0.00;0.00;0.62;;;;;17.80;5.20;;;;;;2268336;61;1111;-86
2023/08/30 01:46:02;0.00;0.00;0.62;0.00;0.00;0.62;;;;;17.60;7.10;;;;;;2268340;61;1998;-86
2023/08/30 01:48:30;0.00;0.00;0.62;0.00;0.00;0.62;;;;;17.70;6.00;;;;;;2268335;61;1030;-87
2023/08/30 01:50:58;418893.00;1.40;722.29;93571.00;0.31;162.47;;;;;17.70;5.70;;;;;;2268313;61;1388;-87
2023/08/30 01:53:27;25914.00;0.09;45.51;0.00;0.00;0.62;;;;;17.60;6.70;;;;;;2268308;61;1028;-86
2023/08/30 01:55:53;0.00;0.00;0.62;0.00;0.00;0.62;;;;;17.60;6.30;;;;;;2268282;61;1085;-85
2023/08/30 01:58:20;0.00;0.00;0.62;0.00;0.00;0.62;;;;;17.60;6.10;;;;;;2268357;61;1090;-87
2023/08/30 02:00:47;9920.00;0.03;17.81;0.00;0.00;0.62;;;;;17.60;6.50;;;;;;2268294;61;1756;-86
2023/08/30 02:03:15;0.00;0.00;0.62;0.00;0.00;0.62;;;;;17.60;6.40;;;;;;2268232;61;1147;-85
2023/08/30 02:05:54;72179.00;0.24;125.53;0.00;0.00;0.62;;;;;17.50;6.50;;;;;;2268266;61;1996;-86
2023/08/30 02:08:27;0.00;0.00;0.62;0.00;0.00;0.62;;;;;17.80;6.30;;;;;;2268272;61;1104;-85
2023/08/30 02:10:57;0.00;0.00;0.62;0.00;0.00;0.62;;;;;17.60;5.80;;;;;;2268203;61;1255;-85
2023/08/30 02:13:29;0.00;0.00;0.62;0.00;0.00;0.62;;;;;17.70;6.00;;;;;;2268238;61;2419;-87
2023/08/30 02:15:56;152295.00;0.51;263.76;27016.00;0.09;47.42;;;;;17.70;6.30;;;;;;2268322;61;1063;-86
2023/08/30 02:18:26;22205.00;0.07;39.09;0.00;0.00;0.62;;;;;17.70;6.20;;;;;;2268253;61;1107;-85
2023/08/30 02:20:53;0.00;0.00;0.62;0.00;0.00;0.62;;;;;17.60;6.00;;;;;;2268181;61;1289;-86
2023/08/30 02:23:19;88029.00;0.29;152.90;4958.00;0.02;9.21;;;;;17.50;6.90;;;;;;2268242;61;957;-86
2023/08/30 02:25:47;66185.00;0.22;115.17;0.00;0.00;0.62;;;;;17.60;7.00;;;;;;2268163;61;1914;-85
2023/08/30 02:28:14;67036.00;0.22;116.64;0.00;0.00;0.62;;;;;17.60;6.30;;;;;;2268173;61;1163;-87
2023/08/30 02:30:40;104362.00;0.35;181.10;0.00;0.00;0.62;;;;;17.60;7.00;;;;;;2268120;61;1352;-86
2023/08/30 02:33:07;356148.00;1.19;614.43;2220.00;0.01;4.47;;;;;17.60;6.60;;;;;;2268149;61;1619;-87
2023/08/30 02:35:35;322189.00;1.07;556.06;53748.00;0.18;93.67;;;;;17.60;7.30;;;;;;2268217;61;1029;-87
2023/08/30 02:38:04;592494.00;1.97;1021.26;35382.00;0.12;61.90;;;;;17.60;6.10;;;;;;2268158;61;1640;-87
2023/08/30 02:40:31;228190.00;0.76;394.43;7104.00;0.02;12.93;;;;;17.60;7.00;;;;;;2268126;61;2219;-87
2023/08/30 02:42:58;153027.00;0.51;265.02;0.00;0.00;0.62;;;;;17.50;6.70;;;;;;2268845;61;956;-86
2023/08/30 02:45:25;412468.00;1.37;711.24;3660.00;0.01;6.96;;;;;17.60;7.40;;;;;;2268896;61;1141;-86
2023/08/30 02:47:51;604743.00;2.02;1042.41;8534.00;0.03;15.41;;;;;17.60;6.80;;;;;;2268766;61;2021;-87
2023/08/30 02:50:18;721407.00;2.40;1244.38;84283.00;0.28;146.43;;;;;17.60;7.40;;;;;;2268825;61;1110;-87
2023/08/30 02:52:46;520345.00;1.73;896.86;58593.00;0.20;102.04;;;;;17.60;7.20;;;;;;2268409;61;1311;-86
2023/08/30 02:55:13;875742.00;2.92;1513.55;69161.00;0.23;120.31;;;;;17.80;6.50;;;;;;2268824;61;1172;-86
2023/08/30 02:57:40;523760.00;1.75;902.74;55572.00;0.19;96.82;;;;;17.70;7.30;;;;;;2268853;61;1123;-87
2023/08/30 03:00:08;707405.00;2.36;1220.08;81391.00;0.27;141.44;;;;;17.70;6.60;;;;;;2268876;61;1062;-86
2023/08/30 03:02:35;928871.00;3.10;1606.88;59949.00;0.20;104.39;;;;;17.80;6.20;;;;;;2269046;61;1296;-86
2023/08/30 03:05:04;524214.00;1.75;903.52;100622.00;0.34;174.65;;;;;17.70;5.70;;;;;;2269164;61;1093;-86
2023/08/30 03:07:31;628892.00;2.10;1084.13;23980.00;0.08;42.16;;;;;17.70;5.60;;;;;;2269083;61;1928;-87
2023/08/30 03:09:59;607020.00;2.02;1046.34;45901.00;0.15;80.10;;;;;17.80;5.50;;;;;;2268880;61;1567;-87
2023/08/30 03:12:26;853612.00;2.85;1474.79;71350.00;0.24;124.09;;;;;17.80;4.60;;;;;;2269086;61;1482;-87
2023/08/30 03:14:52;847732.00;2.83;1464.50;115888.00;0.39;200.99;;;;;17.60;5.90;;;;;;2269136;61;899;-88
2023/08/30 03:17:19;620121.00;2.07;1068.98;30143.00;0.10;52.83;;;;;17.50;7.00;;;;;;2269083;61;1010;-86
2023/08/30 03:19:46;693405.00;2.31;1195.80;63905.00;0.21;111.23;;;;;17.70;5.90;;;;;;2269132;61;1112;-86
2023/08/30 03:22:13;510624.00;1.70;880.12;28050.00;0.09;49.21;;;;;17.70;6.30;;;;;;2269058;61;1390;-86
2023/08/30 03:24:40;486112.00;1.62;837.92;12586.00;0.04;22.43;;;;;17.70;5.80;;;;;;2269086;61;1106;-86
2023/08/30 03:27:08;409233.00;1.36;705.68;50099.00;0.17;87.36;;;;;17.80;6.20;;;;;;2269123;61;1915;-86
2023/08/30 03:29:35;766220.00;2.55;1322.27;40831.00;0.14;71.33;;;;;17.80;6.20;;;;;;2269045;61;988;-88
2023/08/30 03:32:02;668537.00;2.23;1152.72;75238.00;0.25;130.81;;;;;17.80;6.00;;;;;;2269049;61;1396;-86
2023/08/30 03:34:28;824828.00;2.75;1424.46;82195.00;0.27;142.83;;;;;17.60;5.70;;;;;;2269051;61;1039;-87
2023/08/30 03:36:55;922841.00;3.08;1596.27;39260.00;0.13;68.61;;;;;17.60;7.40;;;;;;2269055;61;1098;-87
2023/08/30 03:39:23;763762.00;2.55;1318.00;47872.00;0.16;83.51;;;;;17.50;6.90;;;;;;2269006;61;1141;-86
2023/08/30 03:41:50;849789.00;2.83;1468.10;30363.00;0.10;53.21;;;;;17.60;6.90;;;;;;2268896;61;1282;-87
2023/08/30 03:44:18;717440.00;2.39;1237.49;51651.00;0.17;90.04;;;;;17.70;6.20;;;;;;2268990;61;1107;-87
2023/08/30 03:46:45;913933.00;3.05;1580.60;199656.00;0.67;345.33;;;;;17.50;6.30;;;;;;2268901;61;1915;-87
2023/08/30 03:49:12;527236.00;1.76;908.73;68921.00;0.23;119.90;;;;;17.60;6.40;;;;;;2268925;61;1112;-87
2023/08/30 03:51:39;463662.00;1.55;799.28;32772.00;0.11;57.38;;;;;17.70;6.30;;;;;;2268934;61;1417;-88
2023/08/30 03:54:06;715957.00;2.39;1234.92;28348.00;0.09;49.72;;;;;17.70;6.10;;;;;;2268927;61;1604;-85
2023/08/30 03:56:33;855560.00;2.85;1478.20;108857.00;0.36;188.86;;;;;17.60;6.60;;;;;;2268918;61;1757;-85
2023/08/30 03:58:59;707825.00;2.36;1220.81;102191.00;0.34;177.35;;;;;17.40;6.40;;;;;;2268922;61;1102;-87
2023/08/30 04:01:27;864592.00;2.88;1494.01;90647.00;0.30;157.42;;;;;17.40;7.40;;;;;;2268956;61;1282;-86
2023/08/30 04:03:54;995278.00;3.32;1724.11;141252.00;0.47;244.73;;;;;17.30;6.70;;;;;;2268910;61;1083;-87
2023/08/30 04:06:22;387940.00;1.29;669.07;74507.00;0.25;129.55;;;;;17.40;7.20;;;;;;2268911;61;1920;-87
2023/08/30 04:08:49;592370.00;1.97;1021.05;114467.00;0.38;198.54;;;;;17.40;6.40;;;;;;2268907;61;1226;-87
2023/08/30 04:11:16;590140.00;1.97;1017.20;155958.00;0.52;270.07;;;;;17.40;7.00;;;;;;2268739;61;1258;-87
2023/08/30 04:13:42;294465.00;0.98;508.41;117976.00;0.39;204.59;;;;;17.40;7.80;;;;;;2268915;61;1113;-87
2023/08/30 04:16:09;239349.00;0.80;413.63;75405.00;0.25;131.10;;;;;17.40;8.10;;;;;;2268882;61;1117;-87
2023/08/30 04:18:37;252673.00;0.84;436.55;69941.00;0.23;121.66;;;;;17.40;7.40;;;;;;2268900;61;1585;-87
2023/08/30 04:21:06;272721.00;0.91;471.02;77111.00;0.26;134.05;;;;;17.30;8.00;;;;;;2268874;61;1413;-88
2023/08/30 04:23:33;241349.00;0.80;417.07;69783.00;0.23;121.39;;;;;17.50;7.60;;;;;;2268910;61;1251;-87
2023/08/30 04:25:59;205184.00;0.68;354.85;79276.00;0.26;137.79;;;;;17.50;7.60;;;;;;2268907;61;1118;-87
2023/08/30 04:28:27;245783.00;0.82;424.70;82219.00;0.27;142.87;;;;;17.50;7.60;;;;;;2268841;61;1130;-87
2023/08/30 04:30:55;289151.00;0.96;499.27;68932.00;0.23;119.91;;;;;17.30;7.40;;;;;;2268906;61;1390;-86
2023/08/30 04:33:21;413087.00;1.38;712.30;98538.00;0.33;171.05;;;;;17.20;8.10;;;;;;2268908;61;1014;-87
2023/08/30 04:35:53;223554.00;0.75;386.46;75175.00;0.25;130.70;;;;;17.20;7.50;;;;;;2268886;61;1107;-87
2023/08/30 04:38:20;213380.00;0.71;368.95;71665.00;0.24;124.64;;;;;17.30;7.90;;;;;;2268908;61;1085;-85
2023/08/30 04:40:47;217285.00;0.72;375.67;73861.00;0.25;128.43;;;;;17.30;7.10;;;;;;2268829;61;1430;-86
2023/08/30 04:43:14;176689.00;0.59;305.79;72297.00;0.24;125.73;;;;;17.30;7.20;;;;;;2268789;61;1088;-87
2023/08/30 04:45:41;353678.00;1.18;610.18;89998.00;0.30;156.30;;;;;17.30;7.60;;;;;;2268853;61;1012;-86
2023/08/30 04:48:08;192479.00;0.64;332.98;78066.00;0.26;135.70;;;;;17.10;8.60;;;;;;2268763;61;1931;-86
2023/08/30 04:50:34;228149.00;0.76;394.36;70963.00;0.24;123.42;;;;;17.00;9.20;;;;;;2268807;61;1385;-86
2023/08/30 04:53:03;354355.00;1.18;611.35;59083.00;0.20;102.89;;;;;17.20;8.20;;;;;;2268767;61;1013;-88
2023/08/30 04:55:30;192704.00;0.64;333.36;72677.00;0.24;126.39;;;;;17.40;7.80;;;;;;2268877;61;1067;-85
2023/08/30 04:57:57;197939.00;0.66;342.38;74590.00;0.25;129.69;;;;;17.50;7.10;;;;;;2268752;61;1589;-86
2023/08/30 05:00:24;288173.00;0.96;497.59;116067.00;0.39;201.30;;;;;17.30;7.80;;;;;;2268765;61;1006;-86
2023/08/30 05:02:51;341062.00;1.14;588.50;109162.00;0.36;189.38;;;;;17.80;10.20;;;;;;2268729;61;1558;-87
2023/08/30 05:05:18;182725.00;0.61;316.18;65746.00;0.22;114.41;;;;;18.40;9.80;;;;;;2268642;61;936;-87
2023/08/30 05:07:45;165011.00;0.55;285.67;76527.00;0.26;133.04;;;;;18.60;7.00;;;;;;2268775;61;1990;-87
2023/08/30 05:10:13;192749.00;0.64;333.44;73752.00;0.25;128.24;;;;;18.80;8.00;;;;;;2268735;61;1009;-89
2023/08/30 05:12:42;166532.00;0.56;288.29;75235.00;0.25;130.81;;;;;19.00;7.60;;;;;;2268646;61;1797;-87
2023/08/30 05:15:09;168987.00;0.56;292.52;71598.00;0.24;124.52;;;;;19.20;7.60;;;;;;2268778;61;1087;-88
2023/08/30 05:17:36;186324.00;0.62;322.38;69688.00;0.23;121.22;;;;;19.40;6.60;;;;;;2268762;61;1080;-86
2023/08/30 05:20:04;164471.00;0.55;284.74;72124.00;0.24;125.43;;;;;19.60;5.50;;;;;;2268726;61;935;-87
2023/08/30 05:22:31;288158.00;0.96;497.56;69711.00;0.23;121.26;;;;;19.80;5.60;;;;;;2268770;61;1411;-87
2023/08/30 05:24:58;238343.00;0.79;411.90;73129.00;0.24;127.17;;;;;19.80;4.90;;;;;;2268775;61;1052;-88
2023/08/30 05:27:26;258456.00;0.86;446.49;68992.00;0.23;120.02;;;;;19.90;3.60;;;;;;2268789;61;2001;-89
2023/08/30 05:29:55;170514.00;0.57;295.15;76446.00;0.25;132.90;;;;;19.80;3.80;;;;;;2268771;61;1014;-88
2023/08/30 05:32:22;165099.00;0.55;285.82;81312.00;0.27;141.30;;;;;20.00;2.90;;;;;;2268613;61;1310;-88
2023/08/30 05:34:49;169702.00;0.57;293.75;69699.00;0.23;121.24;;;;;20.20;2.50;;;;;;2268726;61;1040;-88
2023/08/30 05:37:16;468298.00;1.56;807.26;182634.00;0.61;316.03;;;;;20.40;1.90;;;;;;2268670;61;1048;-88
2023/08/30 05:39:43;166534.00;0.56;288.30;68984.00;0.23;120.00;;;;;20.50;1.50;;;;;;2268757;61;1015;-88
2023/08/30 05:42:09;253934.00;0.85;438.72;71082.00;0.24;123.63;;;;;20.30;1.00;;;;;;2268655;61;1388;-86
2023/08/30 05:44:37;173301.00;0.58;299.95;74147.00;0.25;128.93;;;;;20.10;1.00;;;;;;2268719;61;974;-88
2023/08/30 05:47:05;176611.00;0.59;305.65;74882.00;0.25;130.20;;;;;20.00;1.60;;;;;;2268629;61;2002;-87
2023/08/30 05:49:32;164548.00;0.55;284.87;72730.00;0.24;126.48;;;;;19.90;1.00;;;;;;2268683;61;1114;-88
2023/08/30 05:51:58;180126.00;0.60;311.71;78796.00;0.26;136.96;;;;;20.20;1.50;;;;;;2268565;61;1383;-88
2023/08/30 05:54:29;343735.00;1.15;593.09;117230.00;0.39;203.30;;;;;20.40;2.10;;;;;;2268596;61;1087;-86
2023/08/30 05:56:56;186268.00;0.62;322.28;106369.00;0.35;184.56;;;;;20.10;1.00;;;;;;2268242;61;1039;-89
2023/08/30 05:59:23;170646.00;0.57;295.38;77783.00;0.26;135.21;;;;;19.90;2.60;;;;;;2268571;61;1557;-87
2023/08/30 06:01:51;160178.00;0.53;277.35;69417.00;0.23;120.75;;;;;20.00;2.30;;;;;;2268569;61;1386;-87
2023/08/30 06:04:18;169769.00;0.57;293.87;76746.00;0.26;133.42;;;;;20.30;2.30;;;;;;2268526;61;1098;-87
2023/08/30 06:06:45;167661.00;0.56;290.24;74707.00;0.25;129.89;;;;;20.60;2.10;;;;;;2268535;61;2010;-87
2023/08/30 06:09:12;0.00;0.00;0.62;0.00;0.00;0.62;;;;;20.70;1.00;;;;;;2268610;61;1056;-87
2023/08/30 06:11:39;0.00;0.00;0.62;0.00;0.00;0.62;;;;;20.50;1.00;;;;;;2268380;61;1435;-87
2023/08/30 06:14:06;117203960.00;390.68;65215900.00;117150208.00;390.50;65126136.00;;;;;20.80;1.40;;;;;;2268523;61;1130;-87
2023/08/30 06:16:33;0.00;0.00;0.62;0.00;0.00;0.62;;;;;20.80;1.00;;;;;;2268855;61;1728;-87
2023/08/30 06:19:01;0.00;0.00;0.62;0.00;0.00;0.62;;;;;20.90;1.00;;;;;;2269112;61;1064;-86
2023/08/30 06:21:28;35086.00;0.12;61.39;0.00;0.00;0.62;;;;;20.90;1.00;;;;;;2269287;61;1428;-86
2023/08/30 06:23:55;26646.00;0.09;46.78;0.00;0.00;0.62;;;;;21.00;1.00;;;;;;2269255;61;1049;-87
2023/08/30 06:26:21;201114.00;0.67;347.84;0.00;0.00;0.62;;;;;20.90;1.00;;;;;;2269302;61;1189;-87
2023/08/30 06:28:48;13578.00;0.05;24.15;0.00;0.00;0.62;;;;;21.10;1.00;;;;;;2269139;61;2207;-87
2023/08/30 06:31:15;71276.00;0.24;123.97;0.00;0.00;0.62;;;;;21.30;1.00;;;;;;2269207;61;1641;-88
2023/08/30 06:33:42;443626.00;1.48;764.82;159578.00;0.53;276.31;;;;;21.10;1.00;;;;;;2269160;61;1423;-89
2023/08/30 06:36:11;79043.00;0.26;137.38;6683.00;0.02;12.20;;;;;20.90;1.00;;;;;;2269282;61;1220;-87
2023/08/30 06:38:38;60681.00;0.20;105.65;0.00;0.00;0.62;;;;;20.90;1.00;;;;;;2269198;61;1127;-88
2023/08/30 06:41:04;18699.00;0.06;33.02;0.00;0.00;0.62;;;;;20.20;1.00;;;;;;2269184;61;1391;-87
2023/08/30 06:43:31;39342.00;0.13;68.75;0.00;0.00;0.62;;;;;20.10;1.00;;;;;;2269209;61;1013;-88
2023/08/30 06:45:59;57263.00;0.19;99.75;0.00;0.00;0.62;;;;;19.60;1.00;;;;;;2269082;61;1747;-88
2023/08/30 06:48:26;26936.00;0.09;47.28;0.00;0.00;0.62;;;;;19.90;1.80;;;;;;2269129;61;1991;-86
2023/08/30 06:50:53;0.00;0.00;0.62;0.00;0.00;0.62;;;;;20.00;1.00;;;;;;2269117;61;1327;-87
2023/08/30 06:53:21;0.00;0.00;0.62;0.00;0.00;0.62;;;;;20.10;1.00;;;;;;2269136;61;1119;-86
2023/08/30 06:55:56;0.00;0.00;0.62;0.00;0.00;0.62;;;;;20.40;2.20;;;;;;2269194;61;1094;-88
2023/08/30 06:58:23;0.00;0.00;0.62;0.00;0.00;0.62;;;;;20.40;1.00;;;;;;2269160;61;949;-88
2023/08/30 07:00:50;0.00;0.00;0.62;0.00;0.00;0.62;;;;;20.40;1.00;;;;;;2269039;61;1566;-87
2023/08/30 07:03:17;0.00;0.00;0.62;0.00;0.00;0.62;;;;;20.80;1.00;;;;;;2268994;61;1658;-88
2023/08/30 07:05:44;0.00;0.00;0.62;0.00;0.00;0.62;;;;;21.00;1.00;;;;;;2269170;61;1202;-87
2023/08/30 07:08:11;0.00;0.00;0.62;0.00;0.00;0.62;;;;;21.20;1.00;;;;;;2269065;61;2004;-88
2023/08/30 07:10:39;0.00;0.00;0.62;0.00;0.00;0.62;;;;;21.40;1.00;;;;;;2268919;61;1668;-85
2023/08/30 07:13:10;0.00;0.00;0.62;0.00;0.00;0.62;;;;;21.40;1.00;;;;;;2269036;61;1119;-87
2023/08/30 07:15:37;9110.00;0.03;16.41;0.00;0.00;0.62;;;;;21.20;1.00;;;;;;2269078;61;1119;-87
2023/08/30 07:18:04;214002.00;0.71;370.02;16647.00;0.06;29.46;;;;;21.20;1.00;;;;;;2269014;61;1044;-88
2023/08/30 07:20:31;0.00;0.00;0.62;0.00;0.00;0.62;;;;;21.60;1.00;;;;;;2268949;61;1396;-87
2023/08/30 07:22:58;39384.00;0.13;68.82;0.00;0.00;0.62;;;;;21.60;1.00;;;;;;2269144;61;1006;-85
2023/08/30 07:25:25;0.00;0.00;0.62;0.00;0.00;0.62;;;;;21.50;1.00;;;;;;2269073;61;1107;-86
2023/08/30 07:27:53;173772.00;0.58;300.76;0.00;0.00;0.62;;;;;21.60;1.00;;;;;;2268908;61;1919;-86
2023/08/30 07:30:20;121088.00;0.40;209.96;0.00;0.00;0.62;;;;;21.80;1.00;;;;;;2269051;61;1064;-86
2023/08/30 07:32:47;120271.00;0.40;208.55;41578.00;0.14;72.62;;;;;22.20;1.00;;;;;;2268916;61;1328;-88
2023/08/30 07:35:14;0.00;0.00;0.62;0.00;0.00;0.62;;;;;22.30;1.00;;;;;;2268970;61;1088;-87
2023/08/30 07:37:41;79604.00;0.27;138.35;0.00;0.00;0.62;;;;;22.50;1.00;;;;;;2269030;61;1097;-85
2023/08/30 07:40:09;240403.00;0.80;415.44;77476.00;0.26;134.68;;;;;22.60;1.00;;;;;;2269034;61;1004;-86
2023/08/30 07:42:36;0.00;0.00;0.62;0.00;0.00;0.62;;;;;22.90;1.00;;;;;;2268963;61;1380;-87
2023/08/30 07:45:05;10231.00;0.03;18.35;0.00;0.00;0.62;;;;;23.20;1.00;;;;;;2268933;61;1643;-88
2023/08/30 07:47:32;0.00;0.00;0.62;0.00;0.00;0.62;;;;;23.30;1.00;;;;;;2268951;61;1923;-87
2023/08/30 07:49:59;0.00;0.00;0.62;0.00;0.00;0.62;;;;;23.10;1.00;;;;;;2268999;61;1171;-87
2023/08/30 07:52:25;47199.00;0.16;82.34;0.00;0.00;0.62;;;;;23.20;1.00;;;;;;2268954;61;1342;-87
2023/08/30 07:54:52;0.00;0.00;0.62;0.00;0.00;0.62;;;;;23.40;1.00;;;;;;2268950;61;1090;-87
2023/08/30 07:57:19;66436.00;0.22;115.60;0.00;0.00;0.62;;;;;23.50;1.00;;;;;;2268967;61;1644;-87
2023/08/30 07:59:46;0.00;0.00;0.62;0.00;0.00;0.62;;;;;23.40;1.00;;;;;;2268899;61;983;-87
2023/08/30 08:02:14;135516.00;0.45;234.84;0.00;0.00;0.62;;;;;23.30;1.00;;;;;;2268836;61;1264;-87
2023/08/30 08:04:41;405304.00;1.35;698.92;26644.00;0.09;46.77;;;;;23.40;1.00;;;;;;2268894;61;1479;-87
2023/08/30 08:07:07;92749.00;0.31;161.05;0.00;0.00;0.62;;;;;23.40;1.00;;;;;;2268925;61;985;-87
2023/08/30 08:09:34;134462.00;0.45;233.02;0.00;0.00;0.62;;;;;23.30;1.00;;;;;;2273312;40;3494;-85
2023/08/30 08:12:01;220236.00;0.73;380.75;0.00;0.00;0.62;;;;;23.30;1.00;;;;;;2272923;61;1412;-86
2023/08/30 08:14:28;0.00;0.00;0.62;0.00;0.00;0.62;;;;;23.50;1.00;;;;;;2272981;61;904;-86
2023/08/30 08:16:55;118181.00;0.39;204.94;0.00;0.00;0.62;;;;;23.80;1.00;;;;;;2272996;61;1015;-86
2023/08/30 08:19:23;174392.00;0.58;301.83;51218.00;0.17;89.29;;;;;23.70;1.00;;;;;;2272944;61;1082;-87
2023/08/30 08:21:50;0.00;0.00;0.62;0.00;0.00;0.62;;;;;23.80;1.00;;;;;;2272949;61;1322;-86
2023/08/30 08:24:17;48600.00;0.16;84.76;0.00;0.00;0.62;;;;;23.90;1.00;;;;;;2272726;61;1750;-87
2023/08/30 08:31:42;1069212.00;3.56;1855.45;0.00;0.00;0.62;;;;;23.80;1.00;;;;;;2275299;55;3675;-87
2023/08/30 08:34:11;181823.00;0.61;314.63;0.00;0.00;0.62;;;;;23.70;1.00;;;;;;2275262;40;3640;-87
2023/08/30 08:36:41;428705.00;1.43;739.16;0.00;0.00;0.62;;;;;23.40;1.00;;;;;;2286421;56;3799;-87
2023/08/30 08:39:09;218418.00;0.73;377.62;0.00;0.00;0.62;;;;;23.80;1.00;;;;;;2268430;61;1683;-87
2023/08/30 08:41:41;73892.00;0.25;128.49;0.00;0.00;0.62;;;;;23.80;1.00;;;;;;2286842;40;3787;-86
2023/08/30 08:44:08;239491.00;0.80;413.88;0.00;0.00;0.62;;;;;23.60;1.00;;;;;;2293558;40;3760;-84
2023/08/30 08:46:38;92330.00;0.31;160.33;0.00;0.00;0.62;;;;;23.30;1.00;;;;;;2272864;61;954;-88
2023/08/30 08:51:36;1151541.00;3.84;2002.85;0.00;0.00;0.62;;;;;23.30;1.00;;;;;;2277720;40;3496;-89
2023/08/30 08:54:06;179689.00;0.60;310.95;0.00;0.00;0.62;;;;;23.30;1.00;;;;;;2290902;40;3777;-85
2023/08/30 08:56:33;154430.00;0.51;267.44;0.00;0.00;0.62;;;;;23.90;1.00;;;;;;2274685;55;3735;-87
2023/08/30 08:59:01;151738.00;0.51;262.80;0.00;0.00;0.62;;;;;24.20;1.00;;;;;;2283360;40;3656;-88
2023/08/30 09:03:58;699400.00;2.33;1206.20;0.00;0.00;0.62;;;;;23.90;1.00;;;;;;2270464;61;1352;-87
2023/08/30 09:06:25;194849.00;0.65;337.06;0.00;0.00;0.62;;;;;24.30;1.00;;;;;;2268688;61;969;-87
2023/08/30 09:08:55;61732.00;0.21;107.47;0.00;0.00;0.62;;;;;24.50;1.00;;;;;;2277227;55;3787;-87
2023/08/30 09:11:23;124821.00;0.42;216.40;0.00;0.00;0.62;;;;;24.30;1.00;;;;;;2268534;61;1277;-87
2023/08/30 09:16:20;1051135.00;3.50;1823.25;0.00;0.00;0.62;;;;;24.70;1.00;;;;;;2266131;61;1786;-90
2023/08/30 09:18:58;173241.00;0.58;299.85;0.00;0.00;0.62;;;;;24.80;1.00;;;;;;2264678;61;1075;-87
2023/08/30 09:21:25;111724.00;0.37;193.80;0.00;0.00;0.62;;;;;24.60;1.00;;;;;;2264505;61;1346;-87
2023/08/30 09:23:58;70511.00;0.24;122.64;0.00;0.00;0.62;;;;;24.70;1.00;;;;;;2264506;61;2000;-87
2023/08/30 09:26:28;118968.00;0.40;206.30;0.00;0.00;0.62;;;;;24.60;1.00;;;;;;2264585;61;1010;-87
2023/08/30 09:28:55;22469.00;0.07;39.55;0.00;0.00;0.62;;;;;24.50;1.00;;;;;;2264648;61;1918;-88
2023/08/30 09:31:22;129459.00;0.43;224.40;0.00;0.00;0.62;;;;;24.30;1.00;;;;;;2264648;61;1324;-87
2023/08/30 09:33:48;256401.00;0.85;442.96;43298.00;0.14;75.59;;;;;24.80;1.00;;;;;;2264605;61;963;-87
2023/08/30 09:36:15;101007.00;0.34;175.31;0.00;0.00;0.62;;;;;24.90;1.00;;;;;;2264662;61;981;-88
2023/08/30 09:38:48;92399.00;0.31;160.45;0.00;0.00;0.62;;;;;24.50;1.00;;;;;;2264613;61;1031;-86
2023/08/30 09:41:16;0.00;0.00;0.62;0.00;0.00;0.62;;;;;24.70;1.00;;;;;;2264611;61;1376;-86
2023/08/30 09:43:45;54588.00;0.18;95.12;0.00;0.00;0.62;;;;;24.70;1.00;;;;;;2264646;61;1016;-87
2023/08/30 09:46:13;93044.00;0.31;161.56;0.00;0.00;0.62;;;;;24.50;1.00;;;;;;2264463;61;2206;-87
2023/08/30 09:48:41;168902.00;0.56;292.38;0.00;0.00;0.62;;;;;24.60;1.00;;;;;;2264581;61;2003;-86
2023/08/30 09:51:10;162315.00;0.54;281.03;0.00;0.00;0.62;;;;;24.80;1.00;;;;;;2264918;61;1595;-86
2023/08/30 09:53:44;484108.00;1.61;834.47;0.00;0.00;0.62;;;;;24.80;1.00;;;;;;2320291;40;3747;-87
2023/08/30 09:56:15;220631.00;0.74;381.43;0.00;0.00;0.62;;;;;24.80;1.00;;;;;;2285121;55;3740;-87
2023/08/30 09:58:42;160965.00;0.54;278.70;0.00;0.00;0.62;;;;;25.20;1.00;;;;;;2274066;61;1553;-88
2023/08/30 10:01:12;199606.00;0.67;345.25;0.00;0.00;0.62;;;;;25.30;1.00;;;;;;2287642;55;3809;-86
2023/08/30 10:03:40;187012.00;0.62;323.56;0.00;0.00;0.62;;;;;25.10;1.00;;;;;;2273318;61;962;-87
2023/08/30 10:06:07;224234.00;0.75;387.63;0.00;0.00;0.62;;;;;25.10;1.00;;;;;;2296401;40;3641;-87
2023/08/30 10:08:36;129644.00;0.43;224.72;0.00;0.00;0.62;;;;;25.60;1.00;;;;;;2273991;61;1984;-88
2023/08/30 10:11:03;127396.00;0.42;220.84;0.00;0.00;0.62;;;;;25.50;1.00;;;;;;2273292;61;1616;-87